createdAt,value
2018-11-06T00:01:58.525Z,99359.84
2018-11-06T00:04:31.981Z,99360.50
2018-11-06T00:06:59.578Z,99357.83
2018-11-06T00:09:27.399Z,99356.00
2018-11-06T00:11:54.886Z,99357.20
2018-11-06T00:14:22.438Z,99358.08
2018-11-06T00:16:50.138Z,99348.66
2018-11-06T00:19:18.094Z,99359.70
2018-11-06T00:21:45.790Z,99362.03
2018-11-06T00:24:13.575Z,99361.68
2018-11-06T00:26:41.216Z,99358.77
2018-11-06T00:29:08.837Z,99356.73
2018-11-06T00:31:36.506Z,99359.02
2018-11-06T00:34:04.641Z,99353.50
2018-11-06T00:36:32.247Z,99348.52
2018-11-06T00:38:59.907Z,99355.09
2018-11-06T00:41:27.570Z,99354.75
2018-11-06T00:43:55.267Z,99361.92
2018-11-06T00:46:22.900Z,99350.55
2018-11-06T00:48:50.530Z,99348.58
2018-11-06T00:51:18.154Z,99348.23
2018-11-06T00:53:46.146Z,99357.35
2018-11-06T00:56:13.748Z,99359.02
2018-11-06T00:58:41.310Z,99354.09
2018-11-06T01:01:08.864Z,99347.69
2018-11-06T01:03:42.101Z,99353.85
2018-11-06T01:06:09.735Z,99360.77
2018-11-06T01:08:37.394Z,99358.41
2018-11-06T01:11:05.171Z,99349.27
2018-11-06T01:13:32.825Z,99343.41
2018-11-06T01:16:00.486Z,99348.68
2018-11-06T01:18:28.182Z,99354.56
2018-11-06T01:20:55.838Z,99345.59
2018-11-06T01:23:23.442Z,99344.23
2018-11-06T01:25:51.049Z,99350.08
2018-11-06T01:28:18.653Z,99356.56
2018-11-06T01:30:46.271Z,99348.80
2018-11-06T01:33:13.894Z,99347.21
2018-11-06T01:35:41.547Z,99348.76
2018-11-06T01:38:09.188Z,99349.82
2018-11-06T01:40:36.833Z,99348.59
2018-11-06T01:43:04.637Z,99349.24
2018-11-06T01:45:32.355Z,99349.12
2018-11-06T01:48:00.018Z,99349.69
2018-11-06T01:50:27.685Z,99354.83
2018-11-06T01:52:55.323Z,99352.01
2018-11-06T01:55:22.951Z,99353.37
2018-11-06T01:57:50.563Z,99352.77
2018-11-06T02:00:18.848Z,99357.44
2018-11-06T02:02:46.751Z,99355.06
2018-11-06T02:05:15.601Z,99352.84
2018-11-06T02:07:44.509Z,99353.77
2018-11-06T02:10:13.069Z,99348.16
2018-11-06T02:12:41.495Z,99353.07
2018-11-06T02:15:09.715Z,99358.20
2018-11-06T02:17:38.111Z,99357.45
2018-11-06T02:20:06.483Z,99348.59
2018-11-06T02:22:34.090Z,99354.78
2018-11-06T02:25:01.777Z,99358.73
2018-11-06T02:27:29.419Z,99359.26
2018-11-06T02:29:57.029Z,99353.95
2018-11-06T02:32:24.673Z,99355.45
2018-11-06T02:34:52.301Z,99357.50
2018-11-06T02:37:19.959Z,99363.64
2018-11-06T02:39:47.575Z,99356.19
2018-11-06T02:42:15.239Z,99347.33
2018-11-06T02:44:42.939Z,99346.98
2018-11-06T02:47:10.539Z,99349.79
2018-11-06T02:49:38.564Z,99346.33
2018-11-06T02:52:06.193Z,99349.05
2018-11-06T02:54:33.815Z,99357.03
2018-11-06T02:57:01.431Z,99356.89
2018-11-06T02:59:29.098Z,99350.00
2018-11-06T03:01:58.982Z,99349.44
2018-11-06T03:04:26.771Z,99348.17
2018-11-06T03:06:54.465Z,99354.78
2018-11-06T03:09:22.089Z,99363.95
2018-11-06T03:11:49.789Z,99360.52
2018-11-06T03:14:17.489Z,99366.83
2018-11-06T03:16:45.220Z,99370.70
2018-11-06T03:19:12.841Z,99381.61
2018-11-06T03:21:40.499Z,99391.30
2018-11-06T03:24:08.371Z,99382.58
2018-11-06T03:26:36.032Z,99390.41
2018-11-06T03:29:04.016Z,99387.44
2018-11-06T03:31:31.707Z,99395.41
2018-11-06T03:33:59.518Z,99389.80
2018-11-06T03:36:27.157Z,99386.95
2018-11-06T03:38:54.762Z,99382.44
2018-11-06T03:41:22.402Z,99386.95
2018-11-06T03:43:50.022Z,99384.00
2018-11-06T03:46:17.634Z,99383.30
2018-11-06T03:48:45.238Z,99386.46
2018-11-06T03:51:12.892Z,99386.28
2018-11-06T03:53:40.536Z,99389.52
2018-11-06T03:56:08.736Z,99383.13
2018-11-06T03:58:36.625Z,99393.05
2018-11-06T04:01:04.449Z,99393.72
2018-11-06T04:03:32.049Z,99394.02
2018-11-06T04:05:59.649Z,99399.68
2018-11-06T04:08:27.269Z,99400.10
2018-11-06T04:10:54.861Z,99392.13
2018-11-06T04:13:22.483Z,99389.87
2018-11-06T04:15:50.179Z,99397.81
2018-11-06T04:18:17.911Z,99392.27
2018-11-06T04:20:45.633Z,99396.48
2018-11-06T04:23:13.290Z,99396.64
2018-11-06T04:25:40.957Z,99396.22
2018-11-06T04:28:08.597Z,99400.56
2018-11-06T04:30:36.287Z,99395.92
2018-11-06T04:33:03.989Z,99394.20
2018-11-06T04:35:38.477Z,99373.47
2018-11-06T04:38:06.149Z,99394.09
2018-11-06T04:40:33.854Z,99388.08
2018-11-06T04:43:01.506Z,99389.39
2018-11-06T04:45:29.142Z,99393.33
2018-11-06T04:47:56.799Z,99400.99
2018-11-06T04:50:25.346Z,99398.50
2018-11-06T04:52:53.052Z,99399.55
2018-11-06T04:55:20.708Z,99394.77
2018-11-06T04:57:48.374Z,99391.66
2018-11-06T05:00:16.041Z,99393.53
2018-11-06T05:02:43.996Z,99397.38
2018-11-06T05:05:12.182Z,99391.52
2018-11-06T05:07:40.219Z,99394.02
2018-11-06T05:10:10.414Z,99396.41
2018-11-06T05:12:38.219Z,99397.13
2018-11-06T05:15:07.752Z,99403.14
2018-11-06T05:17:35.454Z,99399.81
2018-11-06T05:20:04.366Z,99405.61
2018-11-06T05:25:07.232Z,99402.92
2018-11-06T05:27:34.909Z,99407.05
2018-11-06T05:30:02.561Z,99312.66
2018-11-06T05:32:30.226Z,99404.72
2018-11-06T05:34:58.033Z,99412.31
2018-11-06T05:37:25.721Z,99407.57
2018-11-06T05:40:10.987Z,99413.69
2018-11-06T05:42:38.624Z,99419.17
2018-11-06T05:45:06.363Z,99423.27
2018-11-06T05:47:33.955Z,99420.90
2018-11-06T05:50:01.658Z,99413.78
2018-11-06T05:52:29.359Z,99420.28
2018-11-06T05:54:57.057Z,99425.95
2018-11-06T05:57:24.775Z,99422.27
2018-11-06T05:59:52.680Z,99424.42
2018-11-06T06:02:20.370Z,99422.02
2018-11-06T06:04:48.014Z,99424.52
2018-11-06T06:07:15.734Z,99424.98
2018-11-06T06:09:44.316Z,99427.27
2018-11-06T06:12:11.997Z,99437.30
2018-11-06T06:14:39.649Z,99433.16
2018-11-06T06:17:07.636Z,99444.61
2018-11-06T06:19:35.587Z,99444.41
2018-11-06T06:22:03.591Z,99443.73
2018-11-06T06:24:31.292Z,99446.22
2018-11-06T06:26:59.115Z,99445.31
2018-11-06T06:29:27.135Z,99441.59
2018-11-06T06:31:54.817Z,99445.83
2018-11-06T06:34:22.421Z,99442.38
2018-11-06T06:36:50.052Z,99448.64
2018-11-06T06:39:17.688Z,99445.79
2018-11-06T06:41:45.326Z,99433.08
2018-11-06T06:44:12.930Z,99446.63
2018-11-06T06:46:40.683Z,99453.22
2018-11-06T06:49:08.315Z,99457.31
2018-11-06T06:51:35.947Z,99455.58
2018-11-06T06:54:03.675Z,99456.59
2018-11-06T06:56:31.287Z,99460.77
2018-11-06T06:58:58.962Z,99460.25
2018-11-06T07:01:26.601Z,99463.63
2018-11-06T07:03:54.648Z,99468.33
2018-11-06T07:06:22.352Z,99474.05
2018-11-06T07:08:49.949Z,99480.41
2018-11-06T07:11:17.814Z,99481.56
2018-11-06T07:13:45.415Z,99485.64
2018-11-06T07:16:13.079Z,99485.16
2018-11-06T07:18:40.809Z,99487.09
2018-11-06T07:21:08.459Z,99494.07
2018-11-06T07:23:36.124Z,99484.69
2018-11-06T07:26:04.033Z,99486.91
2018-11-06T07:28:31.683Z,99487.30
2018-11-06T07:30:59.357Z,99494.01
2018-11-06T07:33:27.052Z,99495.72
2018-11-06T07:35:54.826Z,99493.13
2018-11-06T07:38:22.449Z,99497.09
2018-11-06T07:40:50.188Z,99498.35
2018-11-06T07:43:17.817Z,99496.10
2018-11-06T07:45:45.500Z,99477.52
2018-11-06T07:48:13.162Z,99494.30
2018-11-06T07:50:40.860Z,99493.27
2018-11-06T07:53:08.535Z,99490.62
2018-11-06T07:55:36.325Z,99493.59
2018-11-06T07:58:04.099Z,99499.00
2018-11-06T08:00:31.805Z,99500.35
2018-11-06T08:02:59.462Z,99492.55
2018-11-06T08:05:27.179Z,99494.22
2018-11-06T08:07:54.901Z,99492.81
2018-11-06T08:10:22.607Z,99479.55
2018-11-06T08:12:52.428Z,99484.95
2018-11-06T08:15:20.308Z,99479.09
2018-11-06T08:17:48.533Z,99478.61
2018-11-06T08:20:16.370Z,99475.63
2018-11-06T08:22:44.120Z,99475.86
2018-11-06T08:25:12.965Z,99476.65
2018-11-06T08:27:41.718Z,99480.63
2018-11-06T08:30:10.067Z,99476.19
2018-11-06T08:32:38.176Z,99474.36
2018-11-06T08:35:08.286Z,99472.82
2018-11-06T08:37:35.926Z,99477.03
2018-11-06T08:40:04.600Z,99480.39
2018-11-06T08:42:32.375Z,99480.14
2018-11-06T08:45:00.007Z,99476.73
2018-11-06T08:47:27.708Z,99478.53
2018-11-06T08:49:55.394Z,99475.92
2018-11-06T08:52:23.035Z,99484.04
2018-11-06T08:54:50.694Z,99477.60
2018-11-06T08:57:18.508Z,99482.80
2018-11-06T08:59:46.364Z,99490.87
2018-11-06T09:02:14.067Z,99496.55
2018-11-06T09:04:41.711Z,99482.86
2018-11-06T09:07:09.407Z,99489.53
2018-11-06T09:09:37.118Z,99485.01
2018-11-06T09:12:05.002Z,99483.24
2018-11-06T09:14:32.596Z,99497.59
2018-11-06T09:17:00.288Z,99490.69
2018-11-06T09:19:27.893Z,99492.84
2018-11-06T09:21:55.549Z,99495.75
2018-11-06T09:28:59.559Z,99495.97
2018-11-06T09:31:28.190Z,99495.56
2018-11-06T09:33:56.179Z,99497.60
2018-11-06T09:36:24.024Z,99489.39
2018-11-06T09:38:51.696Z,99493.17
2018-11-06T09:41:19.473Z,99488.19
2018-11-06T09:43:47.046Z,99481.27
2018-11-06T09:46:14.764Z,99488.22
2018-11-06T09:48:42.425Z,99489.20
2018-11-06T09:51:10.161Z,99491.67
2018-11-06T09:53:37.865Z,99490.23
2018-11-06T09:56:06.079Z,99492.22
2018-11-06T09:58:33.810Z,99481.34
2018-11-06T10:01:01.418Z,99477.86
2018-11-06T10:03:29.109Z,99481.46
2018-11-06T10:05:56.895Z,99482.64
2018-11-06T10:08:24.660Z,99484.31
2018-11-06T10:10:52.341Z,99477.52
2018-11-06T10:13:19.939Z,99478.15
2018-11-06T10:15:47.648Z,99475.86
2018-11-06T10:18:15.281Z,99469.58
2018-11-06T10:20:42.917Z,99471.39
2018-11-06T10:23:10.517Z,99464.94
2018-11-06T10:25:38.155Z,99468.75
2018-11-06T10:28:05.749Z,99468.94
2018-11-06T10:30:33.414Z,99471.05
2018-11-06T10:33:01.023Z,99471.24
2018-11-06T10:35:28.690Z,99457.52
2018-11-06T10:37:56.442Z,99470.25
2018-11-06T10:40:24.098Z,99465.27
2018-11-06T10:42:51.783Z,99460.34
2018-11-06T10:45:19.883Z,99468.92
2018-11-06T10:47:48.000Z,99470.23
2018-11-06T10:50:16.248Z,99470.02
2018-11-06T10:52:44.489Z,99465.47
2018-11-06T10:55:12.237Z,99468.84
2018-11-06T10:57:40.448Z,99467.25
2018-11-06T11:00:15.766Z,99464.19
2018-11-06T11:02:49.061Z,99454.59
2018-11-06T11:05:17.062Z,99452.06
2018-11-06T11:07:44.815Z,99447.28
2018-11-06T11:10:12.586Z,99434.98
2018-11-06T11:12:40.580Z,99435.36
2018-11-06T11:15:08.098Z,99437.70
2018-11-06T11:17:35.978Z,99435.98
2018-11-06T11:20:04.662Z,99436.09
2018-11-06T11:22:32.339Z,99426.85
2018-11-06T11:25:00.004Z,99439.77
2018-11-06T11:27:27.699Z,99432.66
2018-11-06T11:29:55.426Z,99447.44
2018-11-06T11:32:23.098Z,99445.19
2018-11-06T11:34:50.803Z,99441.59
2018-11-06T11:37:23.070Z,99445.02
2018-11-06T11:39:50.678Z,99454.64
2018-11-06T11:42:18.362Z,99455.06
2018-11-06T11:44:46.232Z,99447.13
2018-11-06T11:47:13.864Z,99446.48
2018-11-06T11:49:41.496Z,99449.61
2018-11-06T11:52:09.162Z,99448.45
2018-11-06T11:54:36.812Z,99449.61
2018-11-06T11:57:04.794Z,99452.26
2018-11-06T11:59:32.426Z,99444.86
2018-11-06T12:02:00.124Z,99439.23
2018-11-06T12:04:27.920Z,99440.99
2018-11-06T12:06:55.594Z,99436.87
2018-11-06T12:09:23.302Z,99443.95
2018-11-06T12:11:50.958Z,99444.46
2018-11-06T12:14:18.634Z,99434.98
2018-11-06T12:16:46.317Z,99428.02
2018-11-06T12:19:14.001Z,99433.12
2018-11-06T12:21:41.662Z,99421.78
2018-11-06T12:24:10.536Z,99425.19
2018-11-06T12:26:38.142Z,99416.81
2018-11-06T12:29:05.970Z,99422.23
2018-11-06T12:31:33.657Z,99415.66
2018-11-06T12:34:03.244Z,99409.63
2018-11-06T12:36:30.932Z,99418.98
2018-11-06T12:38:58.625Z,99413.75
2018-11-06T12:41:26.277Z,99421.78
2018-11-06T12:43:53.996Z,99411.12
2018-11-06T12:46:21.649Z,99412.45
2018-11-06T12:48:49.492Z,99416.13
2018-11-06T12:51:17.139Z,99418.17
2018-11-06T12:53:44.777Z,99425.78
2018-11-06T12:56:12.510Z,99421.78
2018-11-06T12:58:40.108Z,99427.45
2018-11-06T13:01:07.781Z,99421.77
2018-11-06T13:03:35.377Z,99423.30
2018-11-06T13:06:03.024Z,99418.62
2018-11-06T13:08:30.562Z,99416.16
2018-11-06T13:10:58.759Z,99417.30
2018-11-06T13:13:26.603Z,99419.31
2018-11-06T13:15:54.478Z,99409.42
2018-11-06T13:18:21.959Z,99409.34
2018-11-06T13:20:49.656Z,99406.69
2018-11-06T13:23:17.388Z,99408.41
2018-11-06T13:25:45.221Z,99407.39
2018-11-06T13:28:12.860Z,99404.51
2018-11-06T13:30:40.534Z,99401.78
2018-11-06T13:33:08.310Z,99407.47
2018-11-06T13:35:35.900Z,99410.91
2018-11-06T13:38:03.641Z,99404.19
2018-11-06T13:40:31.917Z,99408.34
2018-11-06T13:42:59.751Z,99402.48
2018-11-06T13:45:27.509Z,99396.38
2018-11-06T13:47:55.091Z,99389.56
2018-11-06T13:50:22.768Z,99389.95
2018-11-06T13:52:50.498Z,99392.58
2018-11-06T13:55:18.188Z,99392.58
2018-11-06T13:57:46.353Z,99388.39
2018-11-06T14:00:16.278Z,99386.11
2018-11-06T14:02:44.145Z,99384.63
2018-11-06T14:05:12.177Z,99388.73
2018-11-06T14:07:39.902Z,99395.55
2018-11-06T14:10:07.986Z,99401.30
2018-11-06T14:12:35.736Z,99385.86
2018-11-06T14:15:03.348Z,99388.09
2018-11-06T14:17:31.025Z,99377.55
2018-11-06T14:19:58.715Z,99384.36
2018-11-06T14:22:26.435Z,99392.98
2018-11-06T14:24:54.177Z,99378.77
2018-11-06T14:27:21.794Z,99376.31
2018-11-06T14:29:49.438Z,99378.58
2018-11-06T14:32:17.318Z,99378.11
2018-11-06T14:34:44.897Z,99373.18
2018-11-06T14:37:12.503Z,99368.34
2018-11-06T14:39:40.203Z,99373.64
2018-11-06T14:42:07.879Z,99380.03
2018-11-06T14:44:36.153Z,99374.40
2018-11-06T14:47:03.840Z,99378.55
2018-11-06T14:49:31.454Z,99380.03
2018-11-06T14:51:59.128Z,99373.21
2018-11-06T14:54:26.788Z,99378.27
2018-11-06T14:56:54.456Z,99378.23
2018-11-06T14:59:22.319Z,99378.15
2018-11-06T15:01:49.940Z,99378.04
2018-11-06T15:04:17.578Z,99374.27
2018-11-06T15:06:45.247Z,99370.82
2018-11-06T15:09:12.937Z,99371.66
2018-11-06T15:11:40.644Z,99375.62
2018-11-06T15:14:08.479Z,99372.81
2018-11-06T15:16:36.159Z,99376.14
2018-11-06T15:19:04.341Z,99370.67
2018-11-06T15:21:31.980Z,99380.24
2018-11-06T15:23:59.683Z,99374.14
2018-11-06T15:26:27.403Z,99371.65
2018-11-06T15:28:55.096Z,99381.06
2018-11-06T15:31:22.964Z,99378.24
2018-11-06T15:33:50.660Z,99375.11
2018-11-06T15:36:18.343Z,99378.69
2018-11-06T15:38:45.980Z,99370.23
2018-11-06T15:41:13.746Z,99373.19
2018-11-06T15:43:41.408Z,99375.34
2018-11-06T15:46:09.070Z,99368.02
2018-11-06T15:48:36.783Z,99371.25
2018-11-06T15:51:04.602Z,99371.67
2018-11-06T15:53:32.242Z,99375.63
2018-11-06T15:55:59.876Z,99378.77
2018-11-06T15:58:27.581Z,99383.08
2018-11-06T16:00:55.260Z,99380.18
2018-11-06T16:03:23.135Z,99377.04
2018-11-06T16:05:50.797Z,99378.29
2018-11-06T16:08:18.479Z,99384.25
2018-11-06T16:10:46.058Z,99386.43
2018-11-06T16:13:13.832Z,99390.87
2018-11-06T16:15:41.541Z,99387.73
2018-11-06T16:18:10.265Z,99386.71
2018-11-06T16:20:37.944Z,99384.98
2018-11-06T16:23:05.625Z,99380.70
2018-11-06T16:25:33.473Z,99386.95
2018-11-06T16:28:01.107Z,99389.52
2018-11-06T16:30:28.747Z,99382.77
2018-11-06T16:32:56.468Z,99387.35
2018-11-06T16:35:24.134Z,99386.16
2018-11-06T16:37:52.283Z,99385.53
2018-11-06T16:40:20.159Z,99385.26
2018-11-06T16:42:48.262Z,99384.05
2018-11-06T16:45:18.392Z,99385.48
2018-11-06T16:47:46.824Z,99378.04
2018-11-06T16:50:15.386Z,99377.50
2018-11-06T16:52:43.041Z,99378.94
2018-11-06T16:55:11.169Z,99378.38
2018-11-06T16:57:40.109Z,99373.27
2018-11-06T17:00:10.445Z,99375.56
2018-11-06T17:02:38.269Z,99375.51
2018-11-06T17:05:06.732Z,99374.13
2018-11-06T17:07:34.389Z,99376.48
2018-11-06T17:10:02.031Z,99376.94
2018-11-06T17:12:29.763Z,99380.03
2018-11-06T17:14:57.411Z,99384.95
2018-11-06T17:17:25.748Z,99372.59
2018-11-06T17:19:53.403Z,99377.78
2018-11-06T17:22:21.095Z,99379.76
2018-11-06T17:24:48.776Z,99382.91
2018-11-06T17:27:16.477Z,99371.93
2018-11-06T17:29:44.166Z,99373.77
2018-11-06T17:32:11.809Z,99371.73
2018-11-06T17:34:39.493Z,99361.75
2018-11-06T17:37:07.163Z,99358.04
2018-11-06T17:39:34.944Z,99364.42
2018-11-06T17:42:02.877Z,99356.03
2018-11-06T17:44:30.531Z,99356.73
2018-11-06T17:46:58.163Z,99356.03
2018-11-06T17:49:25.822Z,99356.41
2018-11-06T17:51:53.509Z,99356.10
2018-11-06T17:54:21.123Z,99351.14
2018-11-06T17:56:48.786Z,99355.09
2018-11-06T17:59:16.487Z,99357.06
2018-11-06T18:01:44.153Z,99352.77
2018-11-06T18:04:12.038Z,99352.39
2018-11-06T18:06:39.796Z,99345.98
2018-11-06T18:09:09.698Z,99345.95
2018-11-06T18:11:38.291Z,99352.42
2018-11-06T18:14:06.027Z,99345.73
2018-11-06T18:16:34.091Z,99350.27
2018-11-06T18:19:01.839Z,99345.45
2018-11-06T18:21:29.564Z,99343.44
2018-11-06T18:23:57.427Z,99348.56
2018-11-06T18:26:25.336Z,99347.08
2018-11-06T18:28:53.023Z,99342.22
2018-11-06T18:31:20.751Z,99342.70
2018-11-06T18:33:48.440Z,99343.49
2018-11-06T18:36:16.135Z,99338.23
2018-11-06T18:38:43.825Z,99340.34
2018-11-06T18:41:11.507Z,99343.98
2018-11-06T18:43:39.195Z,99333.27
2018-11-06T18:46:07.178Z,99341.23
2018-11-06T18:48:35.696Z,99340.70
2018-11-06T18:51:03.517Z,99338.69
2018-11-06T18:53:31.335Z,99344.79
2018-11-06T18:55:59.006Z,99342.81
2018-11-06T18:58:26.766Z,99341.02
2018-11-06T19:00:54.497Z,99340.63
2018-11-06T19:03:22.202Z,99349.61
2018-11-06T19:05:50.030Z,99350.14
2018-11-06T19:08:17.719Z,99349.44
2018-11-06T19:10:45.425Z,99346.55
2018-11-06T19:13:13.258Z,99343.82
2018-11-06T19:15:41.002Z,99342.89
2018-11-06T19:18:08.788Z,99337.28
2018-11-06T19:20:36.478Z,99337.55
2018-11-06T19:23:04.462Z,99340.97
2018-11-06T19:25:32.187Z,99339.73
2018-11-06T19:27:59.820Z,99340.97
2018-11-06T19:30:27.542Z,99338.55
2018-11-06T19:32:55.817Z,99336.14
2018-11-06T19:35:23.473Z,99336.97
2018-11-06T19:37:51.205Z,99339.02
2018-11-06T19:40:19.159Z,99343.80
2018-11-06T19:42:47.540Z,99339.41
2018-11-06T19:45:15.320Z,99339.43
2018-11-06T19:47:43.047Z,99340.63
2018-11-06T19:50:12.870Z,99342.08
2018-11-06T19:52:40.799Z,99338.11
2018-11-06T19:55:10.081Z,99336.83
2018-11-06T19:57:37.893Z,99330.95
2018-11-06T20:00:12.691Z,99336.34
2018-11-06T20:02:41.403Z,99342.86
2018-11-06T20:05:09.302Z,99337.36
2018-11-06T20:07:36.919Z,99336.36
2018-11-06T20:10:06.603Z,99341.06
2018-11-06T20:12:34.350Z,99343.63
2018-11-06T20:15:02.083Z,99347.98
2018-11-06T20:17:29.931Z,99342.41
2018-11-06T20:19:57.543Z,99354.37
2018-11-06T20:22:25.248Z,99352.53
2018-11-06T20:24:53.006Z,99353.67
2018-11-06T20:27:20.819Z,99359.01
2018-11-06T20:29:48.889Z,99357.20
2018-11-06T20:32:18.275Z,99354.85
2018-11-06T20:34:46.153Z,99357.34
2018-11-06T20:37:13.985Z,99349.89
2018-11-06T20:39:41.769Z,99361.20
2018-11-06T20:42:10.173Z,99360.50
2018-11-06T20:44:38.688Z,99358.70
2018-11-06T20:47:06.877Z,99360.92
2018-11-06T20:49:35.123Z,99365.35
2018-11-06T20:52:03.537Z,99357.25
2018-11-06T20:54:31.449Z,99354.68
2018-11-06T20:58:03.002Z,99344.19
2018-11-06T21:00:30.726Z,99345.73
2018-11-06T21:03:00.240Z,99344.84
2018-11-06T21:05:28.304Z,99347.61
2018-11-06T21:07:56.339Z,99348.09
2018-11-06T21:10:27.441Z,99350.24
2018-11-06T21:12:56.610Z,99343.59
2018-11-06T21:15:24.430Z,99344.73
2018-11-06T21:17:52.983Z,99338.98
2018-11-06T21:20:21.623Z,99336.52
2018-11-06T21:22:49.363Z,99335.13
2018-11-06T21:25:17.333Z,99332.50
2018-11-06T21:27:45.281Z,99326.68
2018-11-06T21:30:15.493Z,99323.70
2018-11-06T21:32:46.634Z,99329.48
2018-11-06T21:35:14.892Z,99324.63
2018-11-06T21:37:42.973Z,99320.78
2018-11-06T21:40:14.042Z,99324.55
2018-11-06T21:42:42.830Z,99326.76
2018-11-06T21:45:11.829Z,99319.87
2018-11-06T21:47:40.433Z,99325.14
2018-11-06T21:50:09.562Z,99322.17
2018-11-06T21:52:38.513Z,99316.87
2018-11-06T21:55:07.763Z,99310.25
2018-11-06T21:57:36.925Z,99310.38
2018-11-06T22:00:09.225Z,99310.38
2018-11-06T22:02:38.030Z,99317.79
2018-11-06T22:05:08.208Z,99308.81
2018-11-06T22:07:36.982Z,99301.05
2018-11-06T22:10:07.349Z,99304.98
2018-11-06T22:12:35.093Z,99306.34
2018-11-06T22:15:02.844Z,99302.34
2018-11-06T22:17:30.478Z,99293.83
2018-11-06T22:19:58.224Z,99297.05
2018-11-06T22:22:27.993Z,99296.08
2018-11-06T22:24:55.723Z,99297.83
2018-11-06T22:27:23.647Z,99295.30
2018-11-06T22:29:51.340Z,99297.14
2018-11-06T22:32:19.092Z,99301.66
2018-11-06T22:34:47.797Z,99303.80
2018-11-06T22:37:15.947Z,99304.86
2018-11-06T22:39:44.653Z,99307.98
2018-11-06T22:42:12.663Z,99318.75
2018-11-06T22:44:40.423Z,99314.46
2018-11-06T22:47:08.492Z,99308.72
2018-11-06T22:49:36.117Z,99310.17
2018-11-06T22:52:04.099Z,99309.19
2018-11-06T22:54:31.945Z,99307.87
2018-11-06T22:56:59.632Z,99312.13
2018-11-06T22:59:27.373Z,99309.19
2018-11-06T23:01:55.076Z,99307.70
2018-11-06T23:04:22.696Z,99307.66
2018-11-06T23:06:50.489Z,99309.82
2018-11-06T23:09:18.095Z,99312.05
2018-11-06T23:11:45.830Z,99309.69
2018-11-06T23:14:13.474Z,99310.50
2018-11-06T23:16:41.144Z,99308.67
2018-11-06T23:19:08.790Z,99310.50
2018-11-06T23:21:36.436Z,99301.36
2018-11-06T23:24:04.200Z,99304.41
2018-11-06T23:26:31.963Z,99301.70
2018-11-06T23:28:59.679Z,99306.18
2018-11-06T23:31:27.314Z,99296.75
2018-11-06T23:33:55.273Z,99289.61
2018-11-06T23:36:22.962Z,99296.67
2018-11-06T23:38:50.642Z,99295.66
2018-11-06T23:41:18.325Z,99296.40
2018-11-06T23:43:46.017Z,99289.22
2018-11-06T23:46:13.659Z,99298.42
2018-11-06T23:48:41.355Z,99301.45
2018-11-06T23:51:08.995Z,99299.69
2018-11-06T23:53:36.671Z,99303.77
2018-11-06T23:56:04.533Z,99300.31
2018-11-06T23:58:32.243Z,99300.66
